createdAt,value
2019-02-28T00:02:27.606Z,12.97
2019-02-28T00:06:31.773Z,11.77
2019-02-28T00:10:35.986Z,15.23
2019-02-28T00:14:40.334Z,12.17
2019-02-28T00:18:49.524Z,19.60
2019-02-28T00:22:50.463Z,13.03
2019-02-28T00:26:54.696Z,14.57
2019-02-28T00:30:58.916Z,11.87
2019-02-28T00:35:03.437Z,14.90
2019-02-28T00:39:08.026Z,17.87
2019-02-28T00:43:12.248Z,12.13
2019-02-28T00:47:17.157Z,11.10
2019-02-28T00:51:21.540Z,11.50
2019-02-28T00:55:26.187Z,14.03
2019-02-28T00:59:31.727Z,11.53
2019-02-28T01:03:36.305Z,15.40
2019-02-28T01:07:40.518Z,12.30
2019-02-28T01:11:45.552Z,10.77
2019-02-28T01:15:49.889Z,13.83
2019-02-28T01:19:54.086Z,14.97
2019-02-28T01:24:00.558Z,13.17
2019-02-28T01:28:05.313Z,12.80
2019-02-28T01:32:09.538Z,11.03
2019-02-28T01:36:15.550Z,8.90
2019-02-28T01:40:20.048Z,12.20
2019-02-28T01:44:24.627Z,11.10
2019-02-28T01:48:28.854Z,13.10
2019-02-28T01:52:33.069Z,13.70
2019-02-28T01:56:37.912Z,12.40
2019-02-28T02:00:42.207Z,10.50
2019-02-28T02:04:46.700Z,11.43
2019-02-28T02:08:50.947Z,11.27
2019-02-28T02:12:55.114Z,9.07
2019-02-28T02:17:01.088Z,10.87
2019-02-28T02:21:05.291Z,9.60
2019-02-28T02:25:09.743Z,8.17
2019-02-28T02:29:14.064Z,9.77
2019-02-28T02:33:18.993Z,8.80
2019-02-28T02:37:26.441Z,7.90
2019-02-28T02:41:33.267Z,6.03
2019-02-28T02:45:41.681Z,8.97
2019-02-28T02:49:40.954Z,7.47
2019-02-28T02:53:45.175Z,9.30
2019-02-28T02:57:51.661Z,8.43
2019-02-28T03:01:57.110Z,8.03
2019-02-28T03:06:01.466Z,8.03
2019-02-28T03:10:06.451Z,7.50
2019-02-28T03:14:10.635Z,7.57
2019-02-28T03:18:14.849Z,11.57
2019-02-28T03:22:19.411Z,10.37
2019-02-28T03:26:23.664Z,8.07
2019-02-28T03:30:32.366Z,9.07
2019-02-28T03:34:33.838Z,9.20
2019-02-28T03:38:38.063Z,8.00
2019-02-28T03:42:42.294Z,9.57
2019-02-28T03:46:47.813Z,9.53
2019-02-28T03:50:55.299Z,12.87
2019-02-28T03:55:03.255Z,9.50
2019-02-28T03:59:04.063Z,8.17
2019-02-28T04:03:08.414Z,8.80
2019-02-28T04:07:16.020Z,7.30
2019-02-28T04:11:18.553Z,6.43
2019-02-28T04:15:22.770Z,4.73
2019-02-28T04:19:27.417Z,8.17
2019-02-28T04:23:35.953Z,5.53
2019-02-28T04:27:40.157Z,4.93
2019-02-28T04:31:43.631Z,4.10
2019-02-28T04:35:47.848Z,3.53
2019-02-28T04:39:53.307Z,6.43
2019-02-28T04:43:58.027Z,5.10
2019-02-28T04:48:02.205Z,6.47
2019-02-28T04:52:06.429Z,6.17
2019-02-28T04:56:11.423Z,5.80
2019-02-28T05:00:16.533Z,5.50
2019-02-28T05:04:20.720Z,6.37
2019-02-28T05:08:24.923Z,5.97
2019-02-28T05:12:29.133Z,4.87
2019-02-28T05:16:33.324Z,5.67
2019-02-28T05:20:37.546Z,6.13
2019-02-28T05:24:42.591Z,6.23
2019-02-28T05:28:47.888Z,4.90
2019-02-28T05:32:52.123Z,4.70
2019-02-28T05:36:56.358Z,4.43
2019-02-28T05:41:00.653Z,4.80
2019-02-28T05:45:05.371Z,5.33
2019-02-28T05:49:09.854Z,4.10
2019-02-28T05:53:14.176Z,4.27
2019-02-28T05:57:18.404Z,3.67
2019-02-28T06:01:22.758Z,3.90
2019-02-28T06:05:27.295Z,3.47
2019-02-28T06:09:31.490Z,4.17
2019-02-28T06:13:37.097Z,5.13
2019-02-28T06:17:41.516Z,4.03
2019-02-28T06:21:45.824Z,3.23
2019-02-28T06:25:50.094Z,5.10
2019-02-28T06:29:54.280Z,4.67
2019-02-28T06:33:58.527Z,4.53
2019-02-28T06:38:03.104Z,3.93
2019-02-28T06:42:07.337Z,4.33
2019-02-28T06:46:11.589Z,2.93
2019-02-28T06:50:16.020Z,3.03
2019-02-28T06:54:19.245Z,3.67
2019-02-28T06:58:23.485Z,2.73
2019-02-28T07:02:28.514Z,2.33
2019-02-28T07:06:35.951Z,2.80
2019-02-28T07:10:41.488Z,2.93
2019-02-28T07:14:49.354Z,3.80
2019-02-28T07:18:53.742Z,5.97
2019-02-28T07:22:57.801Z,1.93
2019-02-28T07:27:04.178Z,2.23
2019-02-28T07:31:07.974Z,2.50
2019-02-28T07:35:12.198Z,3.07
2019-02-28T07:39:16.404Z,2.33
2019-02-28T07:43:20.627Z,2.47
2019-02-28T07:47:25.503Z,1.73
2019-02-28T07:51:29.829Z,1.93
2019-02-28T07:55:34.072Z,1.60
2019-02-28T07:59:42.383Z,1.83
2019-02-28T08:03:44.951Z,2.63
2019-02-28T08:07:52.148Z,2.97
2019-02-28T08:11:56.759Z,2.70
2019-02-28T08:16:01.081Z,2.97
2019-02-28T08:20:06.413Z,1.97
2019-02-28T08:24:10.648Z,3.70
2019-02-28T08:28:14.902Z,2.73
2019-02-28T08:32:19.130Z,2.93
2019-02-28T08:36:23.373Z,2.90
2019-02-28T08:40:27.710Z,4.43
2019-02-28T08:44:31.933Z,3.53
2019-02-28T08:48:36.109Z,3.43
2019-02-28T08:52:42.133Z,4.10
2019-02-28T08:56:49.671Z,3.63
2019-02-28T09:00:52.650Z,5.17
2019-02-28T09:04:56.825Z,5.07
2019-02-28T09:09:01.201Z,4.37
2019-02-28T09:13:08.623Z,3.87
2019-02-28T09:17:11.420Z,4.30
2019-02-28T09:21:18.280Z,6.73
2019-02-28T09:25:22.771Z,4.60
2019-02-28T09:29:27.112Z,5.43
2019-02-28T09:33:31.632Z,3.50
2019-02-28T09:37:35.865Z,6.63
2019-02-28T09:41:41.239Z,3.57
2019-02-28T09:45:45.529Z,5.43
2019-02-28T09:49:49.742Z,5.23
2019-02-28T09:53:54.311Z,2.63
2019-02-28T09:57:58.529Z,4.63
2019-02-28T10:02:08.093Z,3.83
2019-02-28T10:06:08.665Z,5.43
2019-02-28T10:10:17.523Z,5.00
2019-02-28T10:14:21.195Z,4.67
2019-02-28T10:18:25.852Z,4.97
2019-02-28T10:22:30.485Z,5.17
2019-02-28T10:26:34.704Z,3.87
2019-02-28T10:30:38.917Z,4.93
2019-02-28T10:34:43.137Z,5.60
2019-02-28T10:38:47.362Z,5.30
2019-02-28T10:42:51.645Z,5.53
2019-02-28T10:46:55.868Z,5.43
2019-02-28T10:51:00.087Z,6.10
2019-02-28T10:55:05.018Z,4.60
2019-02-28T10:59:09.576Z,5.33
2019-02-28T11:03:13.872Z,6.93
2019-02-28T11:07:18.092Z,5.40
2019-02-28T11:11:22.351Z,4.83
2019-02-28T11:15:27.083Z,6.73
2019-02-28T11:19:31.568Z,5.97
2019-02-28T11:23:35.792Z,4.97
2019-02-28T11:27:41.861Z,6.53
2019-02-28T11:31:46.100Z,4.73
2019-02-28T11:35:50.531Z,6.27
2019-02-28T11:39:54.761Z,6.73
2019-02-28T11:43:58.986Z,5.73
2019-02-28T11:48:04.349Z,6.85
2019-02-28T11:52:08.735Z,7.30
2019-02-28T11:56:12.945Z,6.55
2019-02-28T12:00:22.941Z,7.00
2019-02-28T12:04:27.144Z,7.80
2019-02-28T12:08:31.377Z,8.23
2019-02-28T12:12:35.556Z,7.77
2019-02-28T12:16:39.873Z,7.97
2019-02-28T12:20:44.062Z,5.97
2019-02-28T12:24:48.568Z,9.27
2019-02-28T12:28:54.369Z,7.37
2019-02-28T12:32:58.610Z,6.97
2019-02-28T12:37:02.809Z,8.00
2019-02-28T12:41:07.052Z,7.33
2019-02-28T12:45:14.686Z,6.17
2019-02-28T12:49:21.835Z,6.87
2019-02-28T12:53:25.492Z,10.33
2019-02-28T12:57:29.843Z,6.10
2019-02-28T13:01:34.378Z,6.58
2019-02-28T13:05:38.640Z,5.78
2019-02-28T13:09:43.283Z,7.77
2019-02-28T13:13:47.504Z,7.40
2019-02-28T13:17:51.942Z,5.23
2019-02-28T13:21:56.195Z,7.03
2019-02-28T13:26:00.773Z,5.67
2019-02-28T13:30:10.542Z,6.85
2019-02-28T13:34:12.438Z,6.20
2019-02-28T13:38:19.082Z,6.70
2019-02-28T13:42:22.549Z,4.77
2019-02-28T13:46:34.258Z,7.00
2019-02-28T13:50:38.676Z,6.00
2019-02-28T13:54:43.345Z,6.77
2019-02-28T13:58:47.600Z,6.23
2019-02-28T14:02:53.510Z,6.10
2019-02-28T14:06:57.765Z,6.15
2019-02-28T14:11:01.973Z,6.57
2019-02-28T14:15:07.367Z,6.00
2019-02-28T14:19:11.690Z,5.22
2019-02-28T14:23:20.333Z,6.87
2019-02-28T14:27:25.233Z,5.73
2019-02-28T14:31:29.574Z,5.77
2019-02-28T14:35:36.578Z,6.55
2019-02-28T14:39:42.691Z,5.28
2019-02-28T14:43:46.311Z,6.30
2019-02-28T14:47:56.782Z,5.47
2019-02-28T14:52:00.342Z,7.53
2019-02-28T14:56:06.939Z,5.93
2019-02-28T15:00:13.423Z,5.67
2019-02-28T15:04:17.659Z,4.63
2019-02-28T15:08:21.860Z,5.67
2019-02-28T15:12:26.083Z,5.63
2019-02-28T15:16:30.612Z,6.92
2019-02-28T15:20:35.015Z,6.97
2019-02-28T15:24:40.538Z,8.90
2019-02-28T15:28:48.550Z,8.50
2019-02-28T15:32:54.384Z,5.63
2019-02-28T15:36:59.184Z,7.00
2019-02-28T15:41:03.789Z,7.53
2019-02-28T15:45:08.747Z,8.67
2019-02-28T15:49:12.978Z,6.83
2019-02-28T15:53:17.204Z,7.77
2019-02-28T15:57:21.430Z,8.40
2019-02-28T16:01:28.633Z,5.43
2019-02-28T16:05:31.547Z,6.57
2019-02-28T16:09:35.779Z,8.03
2019-02-28T16:13:40.348Z,6.60
2019-02-28T16:17:44.878Z,8.90
2019-02-28T16:21:49.218Z,9.97
2019-02-28T16:25:53.440Z,8.20
2019-02-28T16:29:57.652Z,8.77
2019-02-28T16:34:08.361Z,6.03
2019-02-28T16:38:10.111Z,8.57
2019-02-28T16:42:14.885Z,8.50
2019-02-28T16:46:19.107Z,8.17
2019-02-28T16:50:23.314Z,8.03
2019-02-28T16:58:29.836Z,8.43
2019-02-28T17:02:34.228Z,11.77
2019-02-28T17:06:38.497Z,13.17
2019-02-28T17:10:43.387Z,10.37
2019-02-28T17:14:49.208Z,8.77
2019-02-28T17:18:56.665Z,10.77
2019-02-28T17:23:01.375Z,7.67
2019-02-28T17:27:13.827Z,9.03
2019-02-28T17:31:44.629Z,9.33
2019-02-28T17:35:47.959Z,8.30
2019-02-28T17:39:52.219Z,8.87
2019-02-28T17:44:37.496Z,8.43
2019-02-28T17:49:15.037Z,9.37
2019-02-28T17:53:50.864Z,9.10
2019-02-28T17:58:24.803Z,12.67
2019-02-28T18:03:12.993Z,8.27
2019-02-28T18:07:34.318Z,10.87
2019-02-28T18:11:49.938Z,9.60
2019-02-28T18:16:50.301Z,7.53
2019-02-28T18:21:44.995Z,9.87
2019-02-28T18:26:38.570Z,7.63
2019-02-28T18:31:07.994Z,7.13
2019-02-28T18:35:12.266Z,7.57
2019-02-28T18:39:16.503Z,10.23
2019-02-28T18:43:20.670Z,9.83
2019-02-28T18:47:24.910Z,11.93
2019-02-28T18:51:29.132Z,10.60
2019-02-28T18:55:35.166Z,10.97
2019-02-28T18:59:39.845Z,10.03
2019-02-28T19:03:44.091Z,12.57
2019-02-28T19:07:48.383Z,11.33
2019-02-28T19:11:52.826Z,10.23
2019-02-28T19:15:57.029Z,9.37
2019-02-28T19:20:01.670Z,8.53
2019-02-28T19:24:05.932Z,9.10
2019-02-28T19:28:10.141Z,9.07
2019-02-28T19:32:14.333Z,8.03
2019-02-28T19:36:18.525Z,8.73
2019-02-28T19:40:22.747Z,7.73
2019-02-28T19:44:26.986Z,10.07
2019-02-28T19:48:32.815Z,10.60
2019-02-28T19:52:37.019Z,8.53
2019-02-28T19:56:41.250Z,8.07
2019-02-28T20:00:45.573Z,9.17
2019-02-28T20:04:49.800Z,7.83
2019-02-28T20:08:54.043Z,9.87
2019-02-28T20:12:58.305Z,6.80
2019-02-28T20:17:02.489Z,9.70
2019-02-28T20:21:07.102Z,8.60
2019-02-28T20:25:12.609Z,9.00
2019-02-28T20:29:16.843Z,9.43
2019-02-28T20:33:21.089Z,8.07
2019-02-28T20:37:25.320Z,7.63
2019-02-28T20:41:29.571Z,7.33
2019-02-28T20:45:33.751Z,7.53
2019-02-28T20:49:37.993Z,10.27
2019-02-28T20:53:42.214Z,8.10
2019-02-28T20:57:46.529Z,7.97
2019-02-28T21:01:50.722Z,7.30
2019-02-28T21:05:54.940Z,6.70
2019-02-28T21:09:59.163Z,5.13
2019-02-28T21:14:03.629Z,6.33
2019-02-28T21:18:07.860Z,7.07
2019-02-28T21:22:12.031Z,7.37
2019-02-28T21:26:16.254Z,6.97
2019-02-28T21:30:21.735Z,9.40
2019-02-28T21:34:25.993Z,6.40
2019-02-28T21:38:30.334Z,5.97
2019-02-28T21:42:34.593Z,6.50
2019-02-28T21:46:38.887Z,6.87
2019-02-28T21:50:43.088Z,7.97
2019-02-28T21:54:47.308Z,10.77
2019-02-28T21:58:51.832Z,6.47
2019-02-28T22:02:56.054Z,6.80
2019-02-28T22:07:00.225Z,9.17
2019-02-28T22:11:04.439Z,7.47
2019-02-28T22:15:12.499Z,9.97
2019-02-28T22:19:16.693Z,10.00
2019-02-28T22:23:20.877Z,6.17
2019-02-28T22:27:25.093Z,7.33
2019-02-28T22:31:45.892Z,7.50
2019-02-28T22:35:52.887Z,10.80
2019-02-28T22:39:57.485Z,7.07
2019-02-28T22:44:01.742Z,9.93
2019-02-28T22:48:05.978Z,7.80
2019-02-28T22:52:10.161Z,8.57
2019-02-28T22:56:14.375Z,8.23
2019-02-28T23:00:46.740Z,9.77
2019-02-28T23:04:51.014Z,10.07
2019-02-28T23:08:55.199Z,9.07
2019-02-28T23:13:00.046Z,8.67
2019-02-28T23:17:04.508Z,8.83
2019-02-28T23:21:08.770Z,9.87
2019-02-28T23:25:13.291Z,10.30
2019-02-28T23:29:19.844Z,9.73
2019-02-28T23:33:24.045Z,11.73
2019-02-28T23:37:28.373Z,10.47
2019-02-28T23:41:32.590Z,10.87
2019-02-28T23:45:36.814Z,10.77
2019-02-28T23:49:41.043Z,11.93
2019-02-28T23:53:45.273Z,11.60
2019-02-28T23:57:49.459Z,11.73
